Time;durP1;ratioP1;P1;durP2;ratioP2;P2;SDS_P1;SDS_P2;PMS_P1;PMS_P2;Temp;Humidity;BMP_temperature;BMP_pressure;BME280_temperature;BME280_humidity;BME280_pressure;Samples;Min_cycle;Max_cycle;Signal;HPM_P1;HPM_P2
2022/11/22 00:04:58;;;;;;;7.40;5.80;;;8.70;99.90;;;;;;10352153;28;20231;-82
2022/11/22 00:10:00;;;;;;;5.73;5.23;;;8.60;99.90;;;;;;10360523;28;20231;-81
2022/11/22 00:15:02;;;;;;;5.70;5.23;;;8.60;99.90;;;;;;10365538;28;20221;-81
2022/11/22 00:20:09;;;;;;;7.40;5.03;;;8.70;99.90;;;;;;10332340;28;20223;-82
2022/11/22 00:25:11;;;;;;;6.63;5.93;;;8.70;99.90;;;;;;10323223;28;20231;-82
2022/11/22 00:30:14;;;;;;;7.57;5.40;;;8.70;99.90;;;;;;10321556;28;20200;-82
2022/11/22 00:35:17;;;;;;;6.43;5.53;;;8.70;99.90;;;;;;10319211;28;20222;-83
2022/11/22 00:40:19;;;;;;;6.13;5.60;;;8.70;99.90;;;;;;10322703;28;20741;-82
2022/11/22 00:45:21;;;;;;;5.50;5.10;;;8.70;99.90;;;;;;10325483;28;20266;-82
2022/11/22 00:50:25;;;;;;;5.20;4.80;;;8.80;99.90;;;;;;10322856;28;20200;-82
2022/11/22 00:55:27;;;;;;;6.37;5.03;;;8.80;99.90;;;;;;10331029;28;20216;-82
2022/11/22 01:00:29;;;;;;;5.17;4.50;;;8.80;99.90;;;;;;10318502;28;20188;-82
2022/11/22 01:05:32;;;;;;;4.50;4.20;;;8.90;99.90;;;;;;10320213;28;20262;-82
2022/11/22 01:10:36;;;;;;;5.43;4.80;;;8.90;99.90;;;;;;10333509;28;20620;-82
2022/11/22 01:15:38;;;;;;;6.40;5.20;;;8.90;99.90;;;;;;10349523;28;20581;-83
2022/11/22 01:20:41;;;;;;;4.17;3.87;;;8.80;99.90;;;;;;10353898;28;20223;-82
2022/11/22 01:25:44;;;;;;;5.03;4.40;;;8.80;99.90;;;;;;10363748;28;20222;-82
2022/11/22 01:30:49;;;;;;;4.33;4.03;;;8.80;99.90;;;;;;10332431;28;20226;-81
2022/11/22 01:35:53;;;;;;;7.50;4.43;;;8.80;99.90;;;;;;10348619;28;20214;-82
2022/11/22 01:40:55;;;;;;;5.03;4.27;;;8.80;99.90;;;;;;10349538;28;20206;-82
2022/11/22 01:45:58;;;;;;;5.20;3.90;;;8.80;99.90;;;;;;10303531;28;20216;-84
2022/11/22 01:51:06;;;;;;;5.60;5.10;;;8.90;99.90;;;;;;10347877;28;20230;-81
2022/11/22 01:56:13;;;;;;;4.73;4.20;;;8.90;99.90;;;;;;10353581;28;20212;-81
2022/11/22 02:01:15;;;;;;;4.27;3.97;;;9.00;99.90;;;;;;10342275;28;20299;-82
2022/11/22 02:06:19;;;;;;;4.60;4.07;;;9.00;99.90;;;;;;10359681;28;20218;-81
2022/11/22 02:11:23;;;;;;;4.37;3.97;;;9.10;99.90;;;;;;10335674;28;20611;-81
2022/11/22 02:16:25;;;;;;;4.73;4.20;;;9.10;99.90;;;;;;10363562;28;20246;-82
2022/11/22 02:21:29;;;;;;;4.53;4.23;;;9.20;99.90;;;;;;10352593;28;20238;-82
2022/11/22 02:26:32;;;;;;;4.30;3.90;;;9.20;99.90;;;;;;10364338;28;20313;-82
2022/11/22 02:31:41;;;;;;;4.43;4.10;;;9.30;99.90;;;;;;10353036;28;20203;-82
2022/11/22 02:36:47;;;;;;;4.20;3.90;;;9.30;99.90;;;;;;10363014;28;20809;-83
2022/11/22 02:41:51;;;;;;;4.40;4.00;;;9.30;99.90;;;;;;10353494;28;20205;-82
2022/11/22 02:46:55;;;;;;;4.43;4.23;;;9.30;99.90;;;;;;10336085;28;20219;-82
2022/11/22 02:51:57;;;;;;;4.80;4.47;;;9.40;99.90;;;;;;10346429;28;20199;-83
2022/11/22 02:57:02;;;;;;;4.90;4.50;;;9.40;99.90;;;;;;10328406;28;20192;-82
2022/11/22 03:02:04;;;;;;;9.30;4.17;;;9.40;99.90;;;;;;10328036;28;20285;-82
2022/11/22 03:07:06;;;;;;;5.23;3.77;;;9.30;99.90;;;;;;10349161;28;20219;-81
2022/11/22 03:12:09;;;;;;;5.23;4.73;;;9.30;99.90;;;;;;10338163;28;20608;-81
2022/11/22 03:17:13;;;;;;;4.60;3.80;;;9.30;99.90;;;;;;10334112;28;20202;-83
2022/11/22 03:22:15;;;;;;;4.70;4.30;;;9.20;99.90;;;;;;10344113;28;20305;-82
2022/11/22 03:27:18;;;;;;;4.20;3.90;;;9.10;99.90;;;;;;10338458;28;20215;-82
2022/11/22 03:32:21;;;;;;;4.00;3.60;;;9.10;99.90;;;;;;10352583;28;20250;-83
2022/11/22 03:37:23;;;;;;;4.50;4.20;;;9.00;99.90;;;;;;10361128;28;20191;-81
2022/11/22 03:42:26;;;;;;;4.27;4.07;;;9.00;99.90;;;;;;10349771;28;20219;-82
2022/11/22 03:47:28;;;;;;;5.97;4.50;;;9.00;99.90;;;;;;10359689;28;20665;-82
2022/11/22 03:52:30;;;;;;;5.40;4.57;;;9.00;99.90;;;;;;10352180;28;20254;-82
2022/11/22 03:57:34;;;;;;;4.60;3.80;;;9.00;99.90;;;;;;10350977;28;20196;-83
2022/11/22 04:02:36;;;;;;;5.00;4.60;;;9.00;99.90;;;;;;10350465;28;20317;-81
2022/11/22 04:07:38;;;;;;;5.33;4.83;;;9.00;99.90;;;;;;10353949;28;20680;-81
2022/11/22 04:12:41;;;;;;;4.90;4.50;;;9.10;99.90;;;;;;10342477;28;20310;-82
2022/11/22 04:17:46;;;;;;;6.90;4.53;;;9.10;99.90;;;;;;10343802;28;20238;-82
2022/11/22 04:22:55;;;;;;;5.17;4.77;;;9.10;99.90;;;;;;10356882;28;20222;-81
2022/11/22 04:27:59;;;;;;;4.90;4.50;;;9.10;99.90;;;;;;10357542;28;20261;-82
2022/11/22 04:33:01;;;;;;;5.47;5.07;;;9.10;99.90;;;;;;10341187;28;20240;-82
2022/11/22 04:38:03;;;;;;;3.83;3.43;;;9.10;99.90;;;;;;10356770;28;20187;-81
2022/11/22 04:48:27;;;;;;;5.03;4.73;;;9.00;99.90;;;;;;10359532;28;20206;-82
2022/11/22 04:53:29;;;;;;;5.33;5.07;;;9.00;99.90;;;;;;10359863;28;20211;-82
2022/11/22 04:58:33;;;;;;;6.00;5.60;;;8.90;99.90;;;;;;10357926;28;20430;-82
2022/11/22 05:03:35;;;;;;;4.73;4.43;;;8.80;99.90;;;;;;10357389;28;20227;-81
2022/11/22 05:08:37;;;;;;;4.80;4.50;;;8.70;99.90;;;;;;10341103;28;20717;-82
2022/11/22 05:13:42;;;;;;;6.43;5.50;;;8.60;99.90;;;;;;10357318;28;20254;-82
2022/11/22 05:18:57;;;;;;;7.60;4.30;;;8.50;99.90;;;;;;10325638;28;20563;-82
2022/11/22 05:23:59;;;;;;;7.67;4.63;;;8.30;99.90;;;;;;10358684;28;20215;-82
2022/11/22 05:29:06;;;;;;;5.17;4.30;;;8.20;99.90;;;;;;10358970;28;20305;-81
2022/11/22 05:34:08;;;;;;;4.50;4.20;;;8.10;99.90;;;;;;10358288;28;20231;-82
2022/11/22 05:39:10;;;;;;;6.27;3.73;;;8.10;99.90;;;;;;10344085;28;20667;-82
2022/11/22 05:44:14;;;;;;;14.87;11.33;;;8.10;99.90;;;;;;10365567;28;20272;-82
2022/11/22 05:49:16;;;;;;;11.43;10.23;;;8.10;99.90;;;;;;10348043;28;20219;-82
2022/11/22 05:54:18;;;;;;;9.87;8.87;;;8.20;99.90;;;;;;10352840;28;20218;-81
2022/11/22 05:59:21;;;;;;;21.23;17.10;;;8.30;99.90;;;;;;10355023;28;20214;-82
2022/11/22 06:04:23;;;;;;;10.67;8.63;;;8.40;99.90;;;;;;10337785;28;20231;-82
2022/11/22 06:09:25;;;;;;;9.47;7.77;;;8.50;99.90;;;;;;10342865;28;20226;-81
2022/11/22 06:14:29;;;;;;;6.90;6.20;;;8.50;99.90;;;;;;10354953;28;20656;-81
2022/11/22 06:19:31;;;;;;;6.00;5.40;;;8.50;99.90;;;;;;10355112;28;20278;-82
2022/11/22 06:24:33;;;;;;;12.03;9.97;;;8.50;99.90;;;;;;10351352;28;20627;-82
2022/11/22 06:29:36;;;;;;;9.50;5.00;;;8.60;99.90;;;;;;10358113;28;20218;-82
2022/11/22 06:34:38;;;;;;;9.27;6.40;;;8.60;99.90;;;;;;10338441;28;20274;-82
2022/11/22 06:39:40;;;;;;;6.17;4.00;;;8.60;99.90;;;;;;10358012;28;20545;-82
2022/11/22 06:44:44;;;;;;;6.97;4.97;;;8.60;99.90;;;;;;10344431;28;20258;-81
2022/11/22 06:49:46;;;;;;;9.83;7.27;;;8.50;99.90;;;;;;10352803;28;20218;-81
2022/11/22 06:54:48;;;;;;;10.50;5.50;;;8.50;99.90;;;;;;10345030;28;20310;-81
2022/11/22 06:59:51;;;;;;;9.40;6.37;;;8.50;99.90;;;;;;10350202;28;20198;-81
2022/11/22 07:04:53;;;;;;;16.27;8.80;;;8.50;99.90;;;;;;10359856;28;20229;-82
2022/11/22 07:09:55;;;;;;;12.13;9.80;;;8.50;99.90;;;;;;10332919;28;20253;-81
2022/11/22 07:14:58;;;;;;;12.37;10.00;;;8.50;99.90;;;;;;10348626;28;20221;-82
2022/11/22 07:20:01;;;;;;;14.40;11.20;;;8.50;99.90;;;;;;10347259;28;20605;-81
2022/11/22 07:25:03;;;;;;;15.07;8.50;;;8.60;99.90;;;;;;10360596;28;20712;-81
2022/11/22 07:30:08;;;;;;;9.47;5.93;;;8.60;99.90;;;;;;10330268;28;20306;-82
2022/11/22 07:35:10;;;;;;;9.70;6.80;;;8.60;99.90;;;;;;10347406;28;20222;-81
2022/11/22 07:40:13;;;;;;;14.73;9.23;;;8.60;99.90;;;;;;10330461;28;20199;-81
2022/11/22 07:45:16;;;;;;;13.63;11.23;;;8.60;99.90;;;;;;10348993;28;20218;-82
2022/11/22 07:50:18;;;;;;;14.97;11.17;;;8.60;99.90;;;;;;10367935;28;20227;-81
2022/11/22 07:55:20;;;;;;;21.80;16.50;;;8.70;99.90;;;;;;10353143;28;20601;-82
2022/11/22 08:00:24;;;;;;;15.50;12.63;;;8.80;99.90;;;;;;10368694;28;20195;-83
2022/11/22 08:05:27;;;;;;;14.07;11.43;;;8.90;99.90;;;;;;10344618;28;20251;-81
2022/11/22 08:10:29;;;;;;;8.93;7.40;;;9.00;99.90;;;;;;10341542;28;20710;-83
2022/11/22 08:15:32;;;;;;;6.77;5.57;;;9.10;99.90;;;;;;10321883;28;20592;-82
2022/11/22 08:20:34;;;;;;;10.50;5.60;;;9.20;99.90;;;;;;10332985;28;20349;-82
2022/11/22 08:25:36;;;;;;;7.43;5.20;;;9.20;99.90;;;;;;10378057;28;20229;-82
2022/11/22 08:30:40;;;;;;;12.63;7.97;;;9.30;99.90;;;;;;10353382;28;20589;-82
2022/11/22 08:35:42;;;;;;;5.33;4.83;;;9.30;99.90;;;;;;10377535;28;20528;-82
2022/11/22 08:40:44;;;;;;;7.10;6.33;;;9.30;99.90;;;;;;10352347;28;20191;-82
2022/11/22 08:45:49;;;;;;;7.40;6.70;;;9.40;99.90;;;;;;10340716;28;20206;-82
2022/11/22 08:50:52;;;;;;;9.00;5.60;;;9.40;99.90;;;;;;10378018;28;20513;-82
2022/11/22 08:55:55;;;;;;;6.37;5.37;;;9.50;99.90;;;;;;10334247;28;20221;-82
2022/11/22 09:01:04;;;;;;;6.10;5.30;;;9.60;99.90;;;;;;10368517;28;20206;-81
2022/11/22 09:06:07;;;;;;;10.47;5.60;;;9.70;99.90;;;;;;10353636;28;20222;-82
2022/11/22 09:11:11;;;;;;;5.80;5.17;;;9.80;99.90;;;;;;10387971;28;20230;-82
2022/11/22 09:16:17;;;;;;;7.40;4.83;;;9.90;99.90;;;;;;10351986;28;20592;-82
2022/11/22 09:21:19;;;;;;;6.53;5.23;;;10.00;99.90;;;;;;10368811;28;20227;-81
2022/11/22 09:26:24;;;;;;;9.80;5.60;;;10.10;99.90;;;;;;10342111;28;20309;-82
2022/11/22 09:31:27;;;;;;;6.07;5.10;;;10.20;99.90;;;;;;10367090;28;20278;-82
2022/11/22 09:36:29;;;;;;;10.73;5.30;;;10.30;99.90;;;;;;10327982;28;20238;-81
2022/11/22 09:42:11;;;;;;;6.33;5.17;;;10.30;99.90;;;;;;10370399;28;20221;-82
2022/11/22 09:47:22;;;;;;;7.50;3.87;;;10.40;99.90;;;;;;10290582;28;20226;-82
2022/11/22 09:52:30;;;;;;;8.97;4.70;;;10.40;99.90;;;;;;10361905;28;20223;-82
2022/11/22 09:57:37;;;;;;;6.43;5.00;;;10.40;99.90;;;;;;10354043;28;20191;-82
2022/11/22 10:02:45;;;;;;;6.20;5.07;;;10.40;99.90;;;;;;10350998;28;20230;-82
2022/11/22 10:07:55;;;;;;;6.13;4.13;;;10.50;99.90;;;;;;10330163;28;20238;-82
2022/11/22 10:13:04;;;;;;;7.13;4.47;;;10.50;99.90;;;;;;10345312;28;20218;-82
2022/11/22 10:18:16;;;;;;;10.00;8.87;;;10.50;99.90;;;;;;10336617;28;20218;-81
2022/11/22 10:23:21;;;;;;;4.70;4.30;;;10.50;99.90;;;;;;10359520;28;20222;-82
2022/11/22 10:28:32;;;;;;;5.73;4.30;;;10.50;99.90;;;;;;10352733;28;20694;-83
2022/11/22 10:33:42;;;;;;;11.00;7.70;;;10.50;99.90;;;;;;10356200;28;20326;-81
2022/11/22 10:39:12;;;;;;;7.17;4.57;;;10.50;99.90;;;;;;10355508;28;20225;-82
2022/11/22 10:44:24;;;;;;;5.13;3.50;;;10.50;99.90;;;;;;10360343;28;20300;-82
2022/11/22 10:49:41;;;;;;;9.47;4.73;;;10.50;99.90;;;;;;10349357;28;20211;-82
2022/11/22 10:54:52;;;;;;;6.43;4.97;;;10.50;99.90;;;;;;10326837;28;20225;-81
2022/11/22 11:00:16;;;;;;;6.70;4.37;;;10.50;99.90;;;;;;10329839;28;20183;-81
2022/11/22 11:05:28;;;;;;;7.00;4.60;;;10.50;99.90;;;;;;10329292;28;20242;-81
2022/11/22 11:10:36;;;;;;;6.10;4.27;;;10.50;99.90;;;;;;10339482;28;20203;-81
2022/11/22 11:15:43;;;;;;;6.23;4.10;;;10.50;99.90;;;;;;10364525;28;20218;-81
2022/11/22 11:20:46;;;;;;;5.23;3.87;;;10.50;99.90;;;;;;10343767;28;20282;-81
2022/11/22 11:25:51;;;;;;;3.40;3.10;;;10.50;99.90;;;;;;10327602;28;20219;-82
2022/11/22 11:30:55;;;;;;;9.10;5.87;;;10.50;99.90;;;;;;10351618;28;20221;-80
2022/11/22 11:36:05;;;;;;;6.10;3.70;;;10.50;99.90;;;;;;10327013;28;20227;-81
2022/11/22 11:41:20;;;;;;;5.70;4.10;;;10.60;99.90;;;;;;10333606;28;20238;-81
2022/11/22 11:46:23;;;;;;;9.23;4.80;;;10.60;99.90;;;;;;10333781;28;20637;-82
2022/11/22 11:51:35;;;;;;;4.73;3.73;;;10.70;99.90;;;;;;10362326;28;20227;-82
2022/11/22 11:56:45;;;;;;;3.93;3.13;;;10.70;99.90;;;;;;10339980;28;20243;-81
2022/11/22 12:01:52;;;;;;;5.33;3.57;;;10.70;99.90;;;;;;10349583;28;20267;-82
2022/11/22 12:07:02;;;;;;;5.73;3.13;;;10.70;99.90;;;;;;10341712;28;20210;-82
2022/11/22 12:12:15;;;;;;;8.23;4.60;;;10.60;99.90;;;;;;10340340;28;20282;-81
2022/11/22 12:17:26;;;;;;;5.53;3.67;;;10.60;99.90;;;;;;10365032;28;20221;-82
2022/11/22 12:22:36;;;;;;;3.97;3.60;;;10.60;99.90;;;;;;10364221;28;20226;-82
2022/11/22 12:27:38;;;;;;;8.20;3.80;;;10.50;99.90;;;;;;10318107;28;20207;-81
2022/11/22 12:32:46;;;;;;;8.70;3.57;;;10.50;99.90;;;;;;10311896;28;20215;-82
2022/11/22 12:37:54;;;;;;;4.80;3.73;;;10.50;99.90;;;;;;10341364;28;20289;-81
2022/11/22 12:42:59;;;;;;;9.10;3.90;;;10.50;99.90;;;;;;10353786;28;20214;-82
2022/11/22 12:48:06;;;;;;;6.97;3.30;;;10.40;99.90;;;;;;10342271;28;20643;-81
2022/11/22 12:53:13;;;;;;;6.30;3.50;;;10.30;99.90;;;;;;10354597;28;20222;-81
2022/11/22 12:58:24;;;;;;;8.43;4.17;;;10.40;99.90;;;;;;10340431;28;20194;-82
2022/11/22 13:03:32;;;;;;;7.73;4.33;;;10.30;99.90;;;;;;10373608;28;20215;-83
2022/11/22 13:08:40;;;;;;;7.40;3.87;;;10.30;99.90;;;;;;10348706;28;20314;-83
2022/11/22 13:13:46;;;;;;;8.87;3.77;;;10.30;99.90;;;;;;10376292;28;20214;-84
2022/11/22 13:18:54;;;;;;;5.40;3.87;;;10.20;99.90;;;;;;10341191;28;20604;-83
2022/11/22 13:24:14;;;;;;;4.70;2.70;;;10.20;99.90;;;;;;10300664;28;20271;-81
2022/11/22 13:29:21;;;;;;;7.50;3.43;;;10.10;99.90;;;;;;10364716;28;20293;-81
2022/11/22 13:34:25;;;;;;;3.80;3.40;;;10.10;99.90;;;;;;10377422;28;20226;-80
2022/11/22 13:39:30;;;;;;;9.70;4.63;;;10.00;99.90;;;;;;10336901;28;20315;-80
2022/11/22 13:44:48;;;;;;;5.33;3.53;;;10.00;99.90;;;;;;10362384;28;20225;-84
2022/11/22 13:49:52;;;;;;;2.60;2.40;;;10.00;99.90;;;;;;10296557;28;20230;-84
2022/11/22 13:55:26;;;;;;;3.43;3.13;;;10.00;99.90;;;;;;10373412;28;20214;-83
2022/11/22 14:00:46;;;;;;;3.47;3.17;;;10.00;99.90;;;;;;10338304;28;20187;-84
2022/11/22 14:05:52;;;;;;;4.50;3.20;;;10.00;99.90;;;;;;10367908;28;20229;-83
2022/11/22 14:11:13;;;;;;;4.20;3.60;;;10.00;99.90;;;;;;10343083;28;20306;-83
2022/11/22 14:16:27;;;;;;;2.90;2.60;;;10.00;99.90;;;;;;10369789;28;20225;-83
2022/11/22 14:21:45;;;;;;;3.43;2.70;;;10.10;99.90;;;;;;10331178;28;20198;-83
2022/11/22 14:26:57;;;;;;;3.03;2.90;;;10.10;99.90;;;;;;10349042;28;20342;-83
2022/11/22 14:32:03;;;;;;;4.90;3.43;;;10.20;99.90;;;;;;10336038;28;20257;-84
2022/11/22 14:37:35;;;;;;;2.43;2.33;;;10.20;99.90;;;;;;10345382;28;20203;-84
2022/11/22 14:42:59;;;;;;;3.77;3.50;;;10.20;99.90;;;;;;10328858;28;20246;-84
2022/11/22 14:48:10;;;;;;;2.57;2.37;;;10.10;99.90;;;;;;10337431;28;20230;-84
2022/11/22 14:53:28;;;;;;;4.03;3.30;;;10.10;99.90;;;;;;10341774;28;20242;-84
2022/11/22 14:58:36;;;;;;;2.93;2.70;;;10.00;99.90;;;;;;10354969;28;20281;-83
2022/11/22 15:04:09;;;;;;;4.03;3.30;;;10.00;99.90;;;;;;10336571;28;20246;-84
2022/11/22 15:09:44;;;;;;;2.30;2.10;;;10.00;99.90;;;;;;10348966;28;20314;-84
2022/11/22 15:15:18;;;;;;;3.73;3.43;;;10.00;99.90;;;;;;10331164;28;20223;-83
2022/11/22 15:20:34;;;;;;;3.03;2.83;;;9.90;99.90;;;;;;10352422;28;20266;-82
2022/11/22 15:25:38;;;;;;;4.00;3.70;;;9.90;99.90;;;;;;10340075;28;20222;-83
2022/11/22 15:30:41;;;;;;;2.10;1.90;;;9.90;99.90;;;;;;10373003;28;20214;-83
2022/11/22 15:35:54;;;;;;;3.30;3.10;;;9.90;99.90;;;;;;10344804;28;20306;-84
2022/11/22 15:40:56;;;;;;;5.13;3.67;;;9.90;99.90;;;;;;10373867;28;20194;-83
2022/11/22 15:46:00;;;;;;;10.03;9.03;;;9.90;99.90;;;;;;10360889;28;20222;-83
2022/11/22 15:51:05;;;;;;;2.93;2.73;;;9.90;99.90;;;;;;10344218;28;20215;-83
2022/11/22 15:56:15;;;;;;;3.90;3.60;;;9.90;99.90;;;;;;10370472;28;20276;-83
2022/11/22 16:01:19;;;;;;;4.10;3.80;;;9.90;99.90;;;;;;10315981;28;20189;-83
2022/11/22 16:06:25;;;;;;;3.43;3.23;;;9.90;99.90;;;;;;10373626;28;20469;-83
2022/11/22 16:11:29;;;;;;;3.63;3.43;;;9.90;99.90;;;;;;10333063;28;20306;-83
2022/11/22 16:16:34;;;;;;;3.23;2.80;;;9.90;99.90;;;;;;10378190;28;20254;-83
2022/11/22 16:21:36;;;;;;;3.50;3.20;;;9.90;99.90;;;;;;10345734;28;20204;-82
2022/11/22 16:26:39;;;;;;;3.80;3.50;;;9.90;99.90;;;;;;10375106;28;20261;-82
2022/11/22 16:31:42;;;;;;;3.63;2.67;;;9.90;99.90;;;;;;10347638;28;20243;-83
2022/11/22 16:36:44;;;;;;;3.73;3.43;;;9.90;99.90;;;;;;10372533;28;20655;-82
2022/11/22 16:41:46;;;;;;;3.37;3.10;;;9.90;99.90;;;;;;10345122;28;20295;-83
2022/11/22 16:46:50;;;;;;;3.30;3.10;;;9.90;99.90;;;;;;10353838;28;20293;-83
2022/11/22 16:51:52;;;;;;;4.53;3.83;;;9.90;99.90;;;;;;10345999;28;20454;-83
2022/11/22 16:56:54;;;;;;;5.43;3.17;;;9.90;99.90;;;;;;10329640;28;20242;-83
2022/11/22 17:01:59;;;;;;;4.30;3.83;;;9.90;99.90;;;;;;10353933;28;20201;-83
2022/11/22 17:07:01;;;;;;;3.57;3.27;;;9.90;99.90;;;;;;10355366;28;20619;-82
2022/11/22 17:12:03;;;;;;;4.20;3.50;;;9.90;99.90;;;;;;10351240;28;20226;-82
2022/11/22 17:17:08;;;;;;;2.53;2.33;;;9.90;99.90;;;;;;10342307;28;20200;-83
2022/11/22 17:22:13;;;;;;;4.13;3.83;;;9.90;99.90;;;;;;10352007;28;20218;-83
2022/11/22 17:27:15;;;;;;;3.13;2.80;;;9.90;99.90;;;;;;10341455;28;20230;-83
2022/11/22 17:32:19;;;;;;;3.80;3.27;;;9.90;99.90;;;;;;10347470;28;20246;-83
2022/11/22 17:37:21;;;;;;;4.13;3.83;;;9.90;99.90;;;;;;10339000;28;20204;-83
2022/11/22 17:42:23;;;;;;;8.10;3.90;;;9.90;99.90;;;;;;10338165;28;20234;-83
2022/11/22 17:47:27;;;;;;;3.70;3.40;;;9.90;99.90;;;;;;10352055;28;20660;-83
2022/11/22 17:52:29;;;;;;;2.83;2.63;;;9.90;99.90;;;;;;10359342;28;20707;-83
2022/11/22 17:57:31;;;;;;;3.40;3.03;;;9.90;99.90;;;;;;10336377;28;20207;-84
2022/11/22 18:02:35;;;;;;;4.00;2.90;;;9.90;99.90;;;;;;10341802;28;20227;-83
2022/11/22 18:07:38;;;;;;;3.50;3.20;;;9.90;99.90;;;;;;10345967;28;20203;-83
2022/11/22 18:12:41;;;;;;;4.57;4.10;;;9.90;99.90;;;;;;10322697;28;20261;-83
2022/11/22 18:17:44;;;;;;;3.27;3.07;;;9.90;99.90;;;;;;10345656;28;20698;-83
2022/11/22 18:22:46;;;;;;;4.00;3.60;;;9.80;99.90;;;;;;10338667;28;20246;-83
2022/11/22 18:27:48;;;;;;;3.40;3.10;;;9.80;99.90;;;;;;10345140;28;20294;-84
2022/11/22 18:32:52;;;;;;;3.80;3.10;;;9.80;99.90;;;;;;10357807;28;20231;-83
2022/11/22 18:37:54;;;;;;;3.60;3.30;;;9.80;99.90;;;;;;10349170;28;20210;-83
2022/11/22 18:42:56;;;;;;;2.93;2.70;;;9.80;99.90;;;;;;10337480;28;20254;-83
2022/11/22 18:48:01;;;;;;;5.77;3.27;;;9.70;99.90;;;;;;10344773;28;20207;-84
2022/11/22 18:53:03;;;;;;;4.43;3.33;;;9.80;99.90;;;;;;10321326;28;20246;-83
2022/11/22 18:58:05;;;;;;;3.40;2.90;;;9.80;99.90;;;;;;10343364;28;20231;-83
2022/11/22 19:03:10;;;;;;;4.93;3.60;;;9.80;99.90;;;;;;10349644;28;20709;-81
2022/11/22 19:08:12;;;;;;;3.13;2.80;;;9.80;99.90;;;;;;10330532;28;20633;-84
2022/11/22 19:13:14;;;;;;;3.50;3.20;;;9.80;99.90;;;;;;10344622;28;20223;-83
2022/11/22 19:18:19;;;;;;;3.47;2.80;;;9.70;99.90;;;;;;10337384;28;20238;-81
2022/11/22 19:23:21;;;;;;;3.80;3.07;;;9.70;99.90;;;;;;10345134;28;20215;-82
2022/11/22 19:28:26;;;;;;;3.53;3.00;;;9.70;99.90;;;;;;10351881;28;20250;-83
2022/11/22 19:33:29;;;;;;;5.20;3.50;;;9.70;99.90;;;;;;10342715;28;20219;-81
2022/11/22 19:38:31;;;;;;;5.57;3.67;;;9.70;99.90;;;;;;10339970;28;20278;-81
2022/11/22 19:43:33;;;;;;;3.53;3.17;;;9.70;99.90;;;;;;10351134;28;20246;-81
2022/11/22 19:48:37;;;;;;;5.50;3.50;;;9.70;99.90;;;;;;10356064;28;20211;-82
2022/11/22 19:53:40;;;;;;;3.30;3.00;;;9.80;99.90;;;;;;10337322;28;20226;-80
2022/11/22 19:58:44;;;;;;;11.10;7.07;;;9.80;99.90;;;;;;10354549;28;20222;-81
2022/11/22 20:03:51;;;;;;;4.83;3.00;;;9.80;99.90;;;;;;10346403;28;20733;-85
2022/11/22 20:08:59;;;;;;;4.50;4.10;;;9.70;99.90;;;;;;10351588;28;20306;-82
2022/11/22 20:14:01;;;;;;;6.57;4.83;;;9.70;99.90;;;;;;10342939;28;20291;-82
2022/11/22 20:19:06;;;;;;;3.33;3.10;;;9.70;99.90;;;;;;10365600;28;20207;-81
2022/11/22 20:24:08;;;;;;;9.80;6.60;;;9.70;99.90;;;;;;10356523;28;20486;-85
2022/11/22 20:29:13;;;;;;;3.60;3.30;;;9.70;99.90;;;;;;10364567;28;20219;-82
2022/11/22 20:34:16;;;;;;;5.67;3.20;;;9.70;99.90;;;;;;10339655;28;20227;-82
2022/11/22 20:39:18;;;;;;;5.97;3.83;;;9.60;99.90;;;;;;10347752;28;20195;-81
2022/11/22 20:44:20;;;;;;;6.40;3.60;;;9.60;99.90;;;;;;10356167;28;20221;-81
2022/11/22 20:49:26;;;;;;;4.13;3.73;;;9.60;99.90;;;;;;10345350;28;20247;-82
2022/11/22 20:54:28;;;;;;;6.50;3.70;;;9.50;99.90;;;;;;10335718;28;20235;-81
2022/11/22 20:59:30;;;;;;;4.03;3.13;;;9.40;99.90;;;;;;10341584;28;20286;-81
2022/11/22 21:04:33;;;;;;;3.93;3.20;;;9.30;99.90;;;;;;10334395;28;20223;-82
2022/11/22 21:09:36;;;;;;;4.17;3.33;;;9.20;99.90;;;;;;10359097;28;20250;-84
2022/11/22 21:14:38;;;;;;;4.60;3.60;;;9.20;99.90;;;;;;10365436;28;20614;-82
2022/11/22 21:19:41;;;;;;;3.73;3.43;;;9.20;99.90;;;;;;10349683;28;20278;-83
2022/11/22 21:24:43;;;;;;;8.93;3.60;;;9.20;99.90;;;;;;10372712;28;20751;-83
2022/11/22 21:29:45;;;;;;;6.10;3.67;;;9.20;99.90;;;;;;10342985;28;20591;-83
2022/11/22 21:34:49;;;;;;;3.47;2.97;;;9.10;99.90;;;;;;10375274;28;20512;-83
2022/11/22 21:39:51;;;;;;;4.10;3.70;;;9.10;99.90;;;;;;10341654;28;20222;-83
2022/11/22 21:44:53;;;;;;;3.83;3.07;;;9.00;99.90;;;;;;10344356;28;20219;-83
2022/11/22 21:49:56;;;;;;;6.47;4.70;;;9.00;99.90;;;;;;10336805;28;20217;-84
2022/11/22 21:54:58;;;;;;;4.30;3.50;;;8.90;99.90;;;;;;10360812;28;20287;-83
2022/11/22 22:00:01;;;;;;;4.20;3.20;;;8.90;99.90;;;;;;10339556;28;20731;-83
2022/11/22 22:05:05;;;;;;;5.20;3.30;;;8.80;99.90;;;;;;10346097;28;20305;-84
2022/11/22 22:10:07;;;;;;;10.17;4.17;;;8.80;99.90;;;;;;10305230;28;20306;-83
2022/11/22 22:15:11;;;;;;;5.23;3.80;;;8.80;99.90;;;;;;10344860;28;20218;-82
2022/11/22 22:20:15;;;;;;;6.17;4.70;;;8.80;99.90;;;;;;10356665;28;20286;-81
2022/11/22 22:25:18;;;;;;;6.57;4.20;;;8.80;99.90;;;;;;10337988;28;20269;-82
2022/11/22 22:30:21;;;;;;;6.30;3.43;;;8.70;99.90;;;;;;10360079;28;20229;-82
2022/11/22 22:35:25;;;;;;;4.00;3.13;;;8.70;99.90;;;;;;10356766;28;20214;-82
2022/11/22 22:40:27;;;;;;;4.33;3.93;;;8.70;99.90;;;;;;10343817;28;20226;-82
2022/11/22 22:45:29;;;;;;;4.70;4.20;;;8.70;99.90;;;;;;10352560;28;20609;-82
2022/11/22 22:50:34;;;;;;;5.70;3.80;;;8.70;99.90;;;;;;10332321;28;20211;-81
2022/11/22 22:55:36;;;;;;;6.17;3.60;;;8.70;99.90;;;;;;10356212;28;20393;-82
2022/11/22 23:00:38;;;;;;;5.73;3.30;;;8.60;99.90;;;;;;10310175;28;20573;-82
2022/11/22 23:05:41;;;;;;;4.37;3.70;;;8.60;99.90;;;;;;10318468;28;20305;-82
2022/11/22 23:10:43;;;;;;;5.20;4.30;;;8.60;99.90;;;;;;10332488;28;20262;-82
2022/11/22 23:15:45;;;;;;;7.57;4.37;;;8.60;99.90;;;;;;10315038;28;20219;-82
2022/11/22 23:20:49;;;;;;;7.20;4.50;;;8.60;99.90;;;;;;10316221;28;20199;-82
2022/11/22 23:25:51;;;;;;;6.60;4.90;;;8.50;99.90;;;;;;10317194;28;20236;-82
2022/11/22 23:30:53;;;;;;;4.77;4.27;;;8.50;99.90;;;;;;10330912;28;20231;-82
2022/11/22 23:36:01;;;;;;;13.17;5.53;;;8.50;99.90;;;;;;10320177;28;20226;-82
2022/11/22 23:41:03;;;;;;;5.57;4.47;;;8.50;99.90;;;;;;10320244;28;20602;-82
2022/11/22 23:46:07;;;;;;;5.97;4.40;;;8.40;99.90;;;;;;10317223;28;20265;-84
2022/11/22 23:51:11;;;;;;;4.60;4.20;;;8.30;99.90;;;;;;10309738;28;20797;-82
2022/11/22 23:56:14;;;;;;;6.23;4.23;;;8.20;99.90;;;;;;10313176;28;20375;-82
